sensor_id;sensor_type;location;lat;lon;timestamp;temperature;humidity
12622;DHT22;6376;48.182;-1.644;2023-04-28T00:02:00;15.60;87.90
12622;DHT22;6376;48.182;-1.644;2023-04-28T00:04:26;15.60;87.70
12622;DHT22;6376;48.182;-1.644;2023-04-28T00:06:51;15.60;87.40
12622;DHT22;6376;48.182;-1.644;2023-04-28T00:09:17;15.60;87.80
12622;DHT22;6376;48.182;-1.644;2023-04-28T00:11:46;15.60;87.60
12622;DHT22;6376;48.182;-1.644;2023-04-28T00:14:12;15.60;88.00
12622;DHT22;6376;48.182;-1.644;2023-04-28T00:16:38;15.60;88.10
12622;DHT22;6376;48.182;-1.644;2023-04-28T00:19:03;15.60;87.90
12622;DHT22;6376;48.182;-1.644;2023-04-28T00:21:29;15.60;87.50
12622;DHT22;6376;48.182;-1.644;2023-04-28T00:23:55;15.60;87.50
12622;DHT22;6376;48.182;-1.644;2023-04-28T00:26:21;15.60;87.40
12622;DHT22;6376;48.182;-1.644;2023-04-28T00:28:46;15.50;87.80
12622;DHT22;6376;48.182;-1.644;2023-04-28T00:31:13;15.50;87.80
12622;DHT22;6376;48.182;-1.644;2023-04-28T00:33:40;15.50;87.30
12622;DHT22;6376;48.182;-1.644;2023-04-28T00:36:06;15.50;87.90
12622;DHT22;6376;48.182;-1.644;2023-04-28T00:38:32;15.50;87.40
12622;DHT22;6376;48.182;-1.644;2023-04-28T00:40:58;15.50;87.40
12622;DHT22;6376;48.182;-1.644;2023-04-28T00:43:24;15.50;87.50
12622;DHT22;6376;48.182;-1.644;2023-04-28T00:45:49;15.50;87.00
12622;DHT22;6376;48.182;-1.644;2023-04-28T00:48:16;15.50;88.00
12622;DHT22;6376;48.182;-1.644;2023-04-28T00:50:46;15.50;87.30
12622;DHT22;6376;48.182;-1.644;2023-04-28T00:53:12;15.50;86.70
12622;DHT22;6376;48.182;-1.644;2023-04-28T00:55:38;15.50;86.60
12622;DHT22;6376;48.182;-1.644;2023-04-28T00:58:05;15.50;86.70
12622;DHT22;6376;48.182;-1.644;2023-04-28T01:00:31;15.50;86.90
12622;DHT22;6376;48.182;-1.644;2023-04-28T01:02:58;15.50;86.60
12622;DHT22;6376;48.182;-1.644;2023-04-28T01:05:28;15.50;86.80
12622;DHT22;6376;48.182;-1.644;2023-04-28T01:07:53;15.60;87.10
12622;DHT22;6376;48.182;-1.644;2023-04-28T01:10:19;15.50;86.90
12622;DHT22;6376;48.182;-1.644;2023-04-28T01:12:45;15.50;87.00
12622;DHT22;6376;48.182;-1.644;2023-04-28T01:15:18;15.50;87.30
12622;DHT22;6376;48.182;-1.644;2023-04-28T01:17:45;15.50;87.40
12622;DHT22;6376;48.182;-1.644;2023-04-28T01:20:11;15.50;87.50
12622;DHT22;6376;48.182;-1.644;2023-04-28T01:22:37;15.50;87.60
12622;DHT22;6376;48.182;-1.644;2023-04-28T01:25:03;15.50;87.70
12622;DHT22;6376;48.182;-1.644;2023-04-28T01:27:28;15.40;87.70
12622;DHT22;6376;48.182;-1.644;2023-04-28T01:29:54;15.40;87.50
12622;DHT22;6376;48.182;-1.644;2023-04-28T01:32:20;15.40;87.90
12622;DHT22;6376;48.182;-1.644;2023-04-28T01:34:45;15.40;87.60
12622;DHT22;6376;48.182;-1.644;2023-04-28T01:37:12;15.40;87.50
12622;DHT22;6376;48.182;-1.644;2023-04-28T01:39:37;15.40;87.20
12622;DHT22;6376;48.182;-1.644;2023-04-28T01:42:03;15.50;87.30
12622;DHT22;6376;48.182;-1.644;2023-04-28T01:44:29;15.50;87.50
12622;DHT22;6376;48.182;-1.644;2023-04-28T01:46:54;15.40;87.50
12622;DHT22;6376;48.182;-1.644;2023-04-28T01:49:20;15.40;87.60
12622;DHT22;6376;48.182;-1.644;2023-04-28T01:51:46;15.40;87.50
12622;DHT22;6376;48.182;-1.644;2023-04-28T01:54:12;15.40;87.40
12622;DHT22;6376;48.182;-1.644;2023-04-28T01:56:37;15.40;87.30
12622;DHT22;6376;48.182;-1.644;2023-04-28T01:59:03;15.50;87.40
12622;DHT22;6376;48.182;-1.644;2023-04-28T02:01:28;15.40;87.50
12622;DHT22;6376;48.182;-1.644;2023-04-28T02:03:54;15.40;87.50
12622;DHT22;6376;48.182;-1.644;2023-04-28T02:06:20;15.40;87.50
12622;DHT22;6376;48.182;-1.644;2023-04-28T02:08:46;15.40;87.20
12622;DHT22;6376;48.182;-1.644;2023-04-28T02:11:12;15.40;87.00
12622;DHT22;6376;48.182;-1.644;2023-04-28T02:13:37;15.40;87.20
12622;DHT22;6376;48.182;-1.644;2023-04-28T02:16:03;15.40;87.30
12622;DHT22;6376;48.182;-1.644;2023-04-28T02:18:29;15.40;87.30
12622;DHT22;6376;48.182;-1.644;2023-04-28T02:20:55;15.40;87.60
12622;DHT22;6376;48.182;-1.644;2023-04-28T02:23:21;15.40;87.30
12622;DHT22;6376;48.182;-1.644;2023-04-28T02:25:46;15.40;87.20
12622;DHT22;6376;48.182;-1.644;2023-04-28T02:28:12;15.40;87.00
12622;DHT22;6376;48.182;-1.644;2023-04-28T02:30:38;15.40;87.00
12622;DHT22;6376;48.182;-1.644;2023-04-28T02:33:04;15.40;87.00
12622;DHT22;6376;48.182;-1.644;2023-04-28T02:35:29;15.40;87.10
12622;DHT22;6376;48.182;-1.644;2023-04-28T02:37:55;15.40;87.00
12622;DHT22;6376;48.182;-1.644;2023-04-28T02:40:21;15.40;86.80
12622;DHT22;6376;48.182;-1.644;2023-04-28T02:42:46;15.40;86.60
12622;DHT22;6376;48.182;-1.644;2023-04-28T02:45:12;15.40;86.60
12622;DHT22;6376;48.182;-1.644;2023-04-28T02:47:38;15.40;86.40
12622;DHT22;6376;48.182;-1.644;2023-04-28T02:50:03;15.40;86.30
12622;DHT22;6376;48.182;-1.644;2023-04-28T02:52:29;15.40;86.20
12622;DHT22;6376;48.182;-1.644;2023-04-28T02:54:55;15.40;86.20
12622;DHT22;6376;48.182;-1.644;2023-04-28T02:57:22;15.40;86.30
12622;DHT22;6376;48.182;-1.644;2023-04-28T02:59:48;15.40;86.30
12622;DHT22;6376;48.182;-1.644;2023-04-28T03:02:13;15.40;86.10
12622;DHT22;6376;48.182;-1.644;2023-04-28T03:04:40;15.40;86.30
12622;DHT22;6376;48.182;-1.644;2023-04-28T03:07:06;15.40;86.40
12622;DHT22;6376;48.182;-1.644;2023-04-28T03:09:32;15.40;86.30
12622;DHT22;6376;48.182;-1.644;2023-04-28T03:11:57;15.40;86.30
12622;DHT22;6376;48.182;-1.644;2023-04-28T03:14:23;15.40;86.00
12622;DHT22;6376;48.182;-1.644;2023-04-28T03:16:49;15.40;86.00
12622;DHT22;6376;48.182;-1.644;2023-04-28T03:19:14;15.40;85.80
12622;DHT22;6376;48.182;-1.644;2023-04-28T03:21:40;15.40;86.70
12622;DHT22;6376;48.182;-1.644;2023-04-28T03:24:06;15.40;85.90
12622;DHT22;6376;48.182;-1.644;2023-04-28T03:26:32;15.40;86.00
12622;DHT22;6376;48.182;-1.644;2023-04-28T03:28:57;15.40;86.00
12622;DHT22;6376;48.182;-1.644;2023-04-28T03:31:23;15.40;86.00
12622;DHT22;6376;48.182;-1.644;2023-04-28T03:33:49;15.30;86.00
12622;DHT22;6376;48.182;-1.644;2023-04-28T03:36:14;15.30;86.00
12622;DHT22;6376;48.182;-1.644;2023-04-28T03:38:40;15.40;86.10
12622;DHT22;6376;48.182;-1.644;2023-04-28T03:41:06;15.40;86.10
12622;DHT22;6376;48.182;-1.644;2023-04-28T03:43:32;15.40;86.10
12622;DHT22;6376;48.182;-1.644;2023-04-28T03:45:59;15.40;86.10
12622;DHT22;6376;48.182;-1.644;2023-04-28T03:48:25;15.30;86.20
12622;DHT22;6376;48.182;-1.644;2023-04-28T03:50:51;15.40;86.30
12622;DHT22;6376;48.182;-1.644;2023-04-28T03:53:16;15.40;87.20
12622;DHT22;6376;48.182;-1.644;2023-04-28T03:55:43;15.30;86.50
12622;DHT22;6376;48.182;-1.644;2023-04-28T03:58:08;15.30;86.60
12622;DHT22;6376;48.182;-1.644;2023-04-28T04:00:34;15.30;86.60
12622;DHT22;6376;48.182;-1.644;2023-04-28T04:02:59;15.30;86.60
12622;DHT22;6376;48.182;-1.644;2023-04-28T04:05:26;15.30;86.80
12622;DHT22;6376;48.182;-1.644;2023-04-28T04:07:51;15.30;86.80
12622;DHT22;6376;48.182;-1.644;2023-04-28T04:10:17;15.30;86.90
12622;DHT22;6376;48.182;-1.644;2023-04-28T04:12:43;15.30;87.00
12622;DHT22;6376;48.182;-1.644;2023-04-28T04:15:09;15.30;87.10
12622;DHT22;6376;48.182;-1.644;2023-04-28T04:17:34;15.30;87.10
12622;DHT22;6376;48.182;-1.644;2023-04-28T04:20:00;15.30;87.00
12622;DHT22;6376;48.182;-1.644;2023-04-28T04:22:26;15.30;86.80
12622;DHT22;6376;48.182;-1.644;2023-04-28T04:24:51;15.30;86.70
12622;DHT22;6376;48.182;-1.644;2023-04-28T04:27:17;15.30;86.60
12622;DHT22;6376;48.182;-1.644;2023-04-28T04:29:43;15.30;86.70
12622;DHT22;6376;48.182;-1.644;2023-04-28T04:32:09;15.30;86.80
12622;DHT22;6376;48.182;-1.644;2023-04-28T04:34:35;15.30;86.60
12622;DHT22;6376;48.182;-1.644;2023-04-28T04:37:01;15.30;86.70
12622;DHT22;6376;48.182;-1.644;2023-04-28T04:39:27;15.30;86.70
12622;DHT22;6376;48.182;-1.644;2023-04-28T04:41:52;15.30;86.80
12622;DHT22;6376;48.182;-1.644;2023-04-28T04:44:18;15.30;86.70
12622;DHT22;6376;48.182;-1.644;2023-04-28T04:46:44;15.30;86.80
12622;DHT22;6376;48.182;-1.644;2023-04-28T04:49:10;15.30;86.90
12622;DHT22;6376;48.182;-1.644;2023-04-28T04:51:36;15.30;86.80
12622;DHT22;6376;48.182;-1.644;2023-04-28T04:54:02;15.30;86.90
12622;DHT22;6376;48.182;-1.644;2023-04-28T04:56:28;15.30;86.90
12622;DHT22;6376;48.182;-1.644;2023-04-28T04:58:53;15.30;87.00
12622;DHT22;6376;48.182;-1.644;2023-04-28T05:01:19;15.30;87.00
12622;DHT22;6376;48.182;-1.644;2023-04-28T05:03:44;15.30;86.90
12622;DHT22;6376;48.182;-1.644;2023-04-28T05:06:10;15.30;87.10
12622;DHT22;6376;48.182;-1.644;2023-04-28T05:08:36;15.30;87.20
12622;DHT22;6376;48.182;-1.644;2023-04-28T05:11:01;15.30;87.20
12622;DHT22;6376;48.182;-1.644;2023-04-28T05:13:27;15.30;87.40
12622;DHT22;6376;48.182;-1.644;2023-04-28T05:15:53;15.30;87.50
12622;DHT22;6376;48.182;-1.644;2023-04-28T05:18:18;15.30;87.50
12622;DHT22;6376;48.182;-1.644;2023-04-28T05:20:44;15.30;87.40
12622;DHT22;6376;48.182;-1.644;2023-04-28T05:23:09;15.30;87.50
12622;DHT22;6376;48.182;-1.644;2023-04-28T05:25:35;15.30;87.50
12622;DHT22;6376;48.182;-1.644;2023-04-28T05:28:01;15.30;87.50
12622;DHT22;6376;48.182;-1.644;2023-04-28T05:30:32;15.30;87.50
12622;DHT22;6376;48.182;-1.644;2023-04-28T05:32:57;15.30;87.70
12622;DHT22;6376;48.182;-1.644;2023-04-28T05:35:23;15.30;87.70
12622;DHT22;6376;48.182;-1.644;2023-04-28T05:37:49;15.30;87.50
12622;DHT22;6376;48.182;-1.644;2023-04-28T05:40:14;15.30;87.70
12622;DHT22;6376;48.182;-1.644;2023-04-28T05:42:40;15.30;87.70
12622;DHT22;6376;48.182;-1.644;2023-04-28T05:45:06;15.30;87.60
12622;DHT22;6376;48.182;-1.644;2023-04-28T05:47:32;15.30;87.60
12622;DHT22;6376;48.182;-1.644;2023-04-28T05:49:58;15.30;87.50
12622;DHT22;6376;48.182;-1.644;2023-04-28T05:52:23;15.30;87.50
12622;DHT22;6376;48.182;-1.644;2023-04-28T05:54:49;15.30;87.40
12622;DHT22;6376;48.182;-1.644;2023-04-28T05:57:15;15.30;87.30
12622;DHT22;6376;48.182;-1.644;2023-04-28T05:59:40;15.30;87.20
12622;DHT22;6376;48.182;-1.644;2023-04-28T06:02:06;15.30;87.20
12622;DHT22;6376;48.182;-1.644;2023-04-28T06:04:32;15.30;86.80
12622;DHT22;6376;48.182;-1.644;2023-04-28T06:06:57;15.30;86.90
12622;DHT22;6376;48.182;-1.644;2023-04-28T06:09:23;15.30;87.10
12622;DHT22;6376;48.182;-1.644;2023-04-28T06:11:49;15.30;86.90
12622;DHT22;6376;48.182;-1.644;2023-04-28T06:14:15;15.30;86.90
12622;DHT22;6376;48.182;-1.644;2023-04-28T06:16:41;15.30;86.60
12622;DHT22;6376;48.182;-1.644;2023-04-28T06:19:06;15.30;86.60
12622;DHT22;6376;48.182;-1.644;2023-04-28T06:21:32;15.30;86.30
12622;DHT22;6376;48.182;-1.644;2023-04-28T06:23:58;15.30;86.20
12622;DHT22;6376;48.182;-1.644;2023-04-28T06:26:23;15.30;86.20
12622;DHT22;6376;48.182;-1.644;2023-04-28T06:28:49;15.30;86.10
12622;DHT22;6376;48.182;-1.644;2023-04-28T06:31:15;15.30;86.10
12622;DHT22;6376;48.182;-1.644;2023-04-28T06:33:41;15.30;85.90
12622;DHT22;6376;48.182;-1.644;2023-04-28T06:36:06;15.30;86.10
12622;DHT22;6376;48.182;-1.644;2023-04-28T06:38:32;15.30;85.80
12622;DHT22;6376;48.182;-1.644;2023-04-28T06:40:58;15.30;86.00
12622;DHT22;6376;48.182;-1.644;2023-04-28T06:43:23;15.30;85.90
12622;DHT22;6376;48.182;-1.644;2023-04-28T06:45:49;15.30;85.90
12622;DHT22;6376;48.182;-1.644;2023-04-28T06:48:15;15.30;85.60
12622;DHT22;6376;48.182;-1.644;2023-04-28T06:50:40;15.30;85.90
12622;DHT22;6376;48.182;-1.644;2023-04-28T06:53:06;15.30;85.80
12622;DHT22;6376;48.182;-1.644;2023-04-28T06:55:33;15.40;86.30
12622;DHT22;6376;48.182;-1.644;2023-04-28T06:57:59;15.40;86.10
12622;DHT22;6376;48.182;-1.644;2023-04-28T07:00:25;15.50;86.00
12622;DHT22;6376;48.182;-1.644;2023-04-28T07:02:51;15.50;86.30
12622;DHT22;6376;48.182;-1.644;2023-04-28T07:05:17;15.50;86.10
12622;DHT22;6376;48.182;-1.644;2023-04-28T07:07:42;15.60;86.10
12622;DHT22;6376;48.182;-1.644;2023-04-28T07:10:08;15.60;86.30
12622;DHT22;6376;48.182;-1.644;2023-04-28T07:12:35;15.60;86.30
12622;DHT22;6376;48.182;-1.644;2023-04-28T07:15:01;15.50;86.00
12622;DHT22;6376;48.182;-1.644;2023-04-28T07:17:27;15.50;86.40
12622;DHT22;6376;48.182;-1.644;2023-04-28T07:19:52;15.60;86.10
12622;DHT22;6376;48.182;-1.644;2023-04-28T07:22:18;15.60;85.80
12622;DHT22;6376;48.182;-1.644;2023-04-28T07:24:43;15.60;85.40
12622;DHT22;6376;48.182;-1.644;2023-04-28T07:27:09;15.60;85.20
12622;DHT22;6376;48.182;-1.644;2023-04-28T07:29:35;15.60;85.20
12622;DHT22;6376;48.182;-1.644;2023-04-28T07:32:01;15.60;85.20
12622;DHT22;6376;48.182;-1.644;2023-04-28T07:34:29;15.60;84.90
12622;DHT22;6376;48.182;-1.644;2023-04-28T07:36:55;15.60;85.00
12622;DHT22;6376;48.182;-1.644;2023-04-28T07:39:21;15.60;85.50
12622;DHT22;6376;48.182;-1.644;2023-04-28T07:41:47;15.60;85.40
12622;DHT22;6376;48.182;-1.644;2023-04-28T07:44:14;15.60;85.10
12622;DHT22;6376;48.182;-1.644;2023-04-28T07:46:42;15.60;84.60
12622;DHT22;6376;48.182;-1.644;2023-04-28T07:49:07;15.60;85.00
12622;DHT22;6376;48.182;-1.644;2023-04-28T07:51:34;15.60;84.80
12622;DHT22;6376;48.182;-1.644;2023-04-28T07:54:00;15.60;85.00
12622;DHT22;6376;48.182;-1.644;2023-04-28T07:56:25;15.60;85.00
12622;DHT22;6376;48.182;-1.644;2023-04-28T07:58:54;15.60;84.60
12622;DHT22;6376;48.182;-1.644;2023-04-28T08:01:21;15.60;84.80
12622;DHT22;6376;48.182;-1.644;2023-04-28T08:03:47;15.60;85.50
12622;DHT22;6376;48.182;-1.644;2023-04-28T08:06:12;15.60;85.00
12622;DHT22;6376;48.182;-1.644;2023-04-28T08:08:38;15.60;85.00
12622;DHT22;6376;48.182;-1.644;2023-04-28T08:11:05;15.60;85.10
12622;DHT22;6376;48.182;-1.644;2023-04-28T08:13:31;15.60;84.50
12622;DHT22;6376;48.182;-1.644;2023-04-28T08:15:57;15.60;84.00
12622;DHT22;6376;48.182;-1.644;2023-04-28T08:18:25;15.60;83.70
12622;DHT22;6376;48.182;-1.644;2023-04-28T08:20:51;15.60;83.50
12622;DHT22;6376;48.182;-1.644;2023-04-28T08:23:18;15.60;83.30
12622;DHT22;6376;48.182;-1.644;2023-04-28T08:25:45;15.60;83.20
12622;DHT22;6376;48.182;-1.644;2023-04-28T08:28:12;15.70;83.00
12622;DHT22;6376;48.182;-1.644;2023-04-28T08:30:37;15.70;82.70
12622;DHT22;6376;48.182;-1.644;2023-04-28T08:33:03;15.70;82.80
12622;DHT22;6376;48.182;-1.644;2023-04-28T08:35:29;15.60;82.70
12622;DHT22;6376;48.182;-1.644;2023-04-28T08:37:55;15.70;82.60
12622;DHT22;6376;48.182;-1.644;2023-04-28T08:40:21;15.70;82.60
12622;DHT22;6376;48.182;-1.644;2023-04-28T08:42:49;15.70;82.60
12622;DHT22;6376;48.182;-1.644;2023-04-28T08:45:15;15.70;82.90
12622;DHT22;6376;48.182;-1.644;2023-04-28T08:47:41;15.70;82.60
12622;DHT22;6376;48.182;-1.644;2023-04-28T08:50:11;15.70;82.60
12622;DHT22;6376;48.182;-1.644;2023-04-28T08:52:37;15.70;82.60
12622;DHT22;6376;48.182;-1.644;2023-04-28T08:55:08;15.70;82.50
12622;DHT22;6376;48.182;-1.644;2023-04-28T08:57:39;15.60;82.40
12622;DHT22;6376;48.182;-1.644;2023-04-28T09:00:07;15.70;82.60
12622;DHT22;6376;48.182;-1.644;2023-04-28T09:02:32;15.70;82.60
12622;DHT22;6376;48.182;-1.644;2023-04-28T09:04:58;15.60;83.20
12622;DHT22;6376;48.182;-1.644;2023-04-28T09:07:23;15.60;82.40
12622;DHT22;6376;48.182;-1.644;2023-04-28T09:10:16;15.70;82.70
12622;DHT22;6376;48.182;-1.644;2023-04-28T09:12:46;15.70;82.40
12622;DHT22;6376;48.182;-1.644;2023-04-28T09:15:29;15.70;82.30
12622;DHT22;6376;48.182;-1.644;2023-04-28T09:17:55;15.70;82.20
12622;DHT22;6376;48.182;-1.644;2023-04-28T09:20:26;15.70;82.30
12622;DHT22;6376;48.182;-1.644;2023-04-28T09:22:53;15.70;83.00
12622;DHT22;6376;48.182;-1.644;2023-04-28T09:25:20;15.70;82.60
12622;DHT22;6376;48.182;-1.644;2023-04-28T09:27:47;15.70;82.30
12622;DHT22;6376;48.182;-1.644;2023-04-28T09:30:14;15.70;82.00
12622;DHT22;6376;48.182;-1.644;2023-04-28T09:32:40;15.70;82.10
12622;DHT22;6376;48.182;-1.644;2023-04-28T09:35:06;15.70;82.20
12622;DHT22;6376;48.182;-1.644;2023-04-28T09:37:32;15.70;82.20
12622;DHT22;6376;48.182;-1.644;2023-04-28T09:40:09;15.70;82.00
12622;DHT22;6376;48.182;-1.644;2023-04-28T09:42:41;15.70;82.00
12622;DHT22;6376;48.182;-1.644;2023-04-28T09:45:08;15.70;82.20
12622;DHT22;6376;48.182;-1.644;2023-04-28T09:47:39;15.70;82.30
12622;DHT22;6376;48.182;-1.644;2023-04-28T09:50:10;15.70;82.00
12622;DHT22;6376;48.182;-1.644;2023-04-28T09:52:40;15.70;82.00
12622;DHT22;6376;48.182;-1.644;2023-04-28T09:55:07;15.70;82.60
12622;DHT22;6376;48.182;-1.644;2023-04-28T09:57:37;15.70;82.10
12622;DHT22;6376;48.182;-1.644;2023-04-28T10:00:05;15.70;81.80
12622;DHT22;6376;48.182;-1.644;2023-04-28T10:02:34;15.70;81.60
12622;DHT22;6376;48.182;-1.644;2023-04-28T10:05:00;15.80;81.60
12622;DHT22;6376;48.182;-1.644;2023-04-28T10:07:26;15.80;81.60
12622;DHT22;6376;48.182;-1.644;2023-04-28T10:09:53;15.80;81.40
12622;DHT22;6376;48.182;-1.644;2023-04-28T10:12:20;15.80;81.40
12622;DHT22;6376;48.182;-1.644;2023-04-28T10:14:47;15.80;81.30
12622;DHT22;6376;48.182;-1.644;2023-04-28T10:17:22;15.80;81.20
12622;DHT22;6376;48.182;-1.644;2023-04-28T10:19:52;15.80;81.20
12622;DHT22;6376;48.182;-1.644;2023-04-28T10:25:30;15.80;81.00
12622;DHT22;6376;48.182;-1.644;2023-04-28T10:27:57;15.90;80.80
12622;DHT22;6376;48.182;-1.644;2023-04-28T10:30:24;16.00;80.50
12622;DHT22;6376;48.182;-1.644;2023-04-28T10:38:16;16.00;80.00
12622;DHT22;6376;48.182;-1.644;2023-04-28T10:40:49;16.00;80.20
12622;DHT22;6376;48.182;-1.644;2023-04-28T10:51:20;15.90;80.70
12622;DHT22;6376;48.182;-1.644;2023-04-28T10:56:23;15.90;80.80
12622;DHT22;6376;48.182;-1.644;2023-04-28T10:58:56;15.90;80.70
12622;DHT22;6376;48.182;-1.644;2023-04-28T11:01:28;15.90;80.90
12622;DHT22;6376;48.182;-1.644;2023-04-28T11:03:56;15.90;80.70
12622;DHT22;6376;48.182;-1.644;2023-04-28T11:06:30;15.90;80.60
12622;DHT22;6376;48.182;-1.644;2023-04-28T11:09:00;15.90;80.70
12622;DHT22;6376;48.182;-1.644;2023-04-28T11:11:30;15.90;80.50
12622;DHT22;6376;48.182;-1.644;2023-04-28T11:17:03;16.00;80.50
12622;DHT22;6376;48.182;-1.644;2023-04-28T11:19:34;16.00;80.60
12622;DHT22;6376;48.182;-1.644;2023-04-28T11:22:05;16.00;80.60
12622;DHT22;6376;48.182;-1.644;2023-04-28T11:24:36;16.00;80.70
12622;DHT22;6376;48.182;-1.644;2023-04-28T11:27:01;16.00;80.50
12622;DHT22;6376;48.182;-1.644;2023-04-28T11:31:56;16.00;80.40
12622;DHT22;6376;48.182;-1.644;2023-04-28T11:34:22;16.00;80.30
12622;DHT22;6376;48.182;-1.644;2023-04-28T11:36:49;16.10;80.50
12622;DHT22;6376;48.182;-1.644;2023-04-28T11:39:14;16.10;80.30
12622;DHT22;6376;48.182;-1.644;2023-04-28T11:41:42;16.00;80.30
12622;DHT22;6376;48.182;-1.644;2023-04-28T11:44:15;16.10;80.30
12622;DHT22;6376;48.182;-1.644;2023-04-28T11:46:48;16.10;80.30
12622;DHT22;6376;48.182;-1.644;2023-04-28T11:49:45;16.00;80.20
12622;DHT22;6376;48.182;-1.644;2023-04-28T11:52:12;16.00;80.40
12622;DHT22;6376;48.182;-1.644;2023-04-28T11:54:38;16.00;80.50
12622;DHT22;6376;48.182;-1.644;2023-04-28T11:57:16;16.00;80.70
12622;DHT22;6376;48.182;-1.644;2023-04-28T11:59:42;16.00;80.50
12622;DHT22;6376;48.182;-1.644;2023-04-28T12:02:08;16.00;80.40
12622;DHT22;6376;48.182;-1.644;2023-04-28T12:04:35;16.10;80.40
12622;DHT22;6376;48.182;-1.644;2023-04-28T12:07:11;16.10;80.20
12622;DHT22;6376;48.182;-1.644;2023-04-28T12:10:09;16.10;80.10
12622;DHT22;6376;48.182;-1.644;2023-04-28T12:12:34;16.10;80.20
12622;DHT22;6376;48.182;-1.644;2023-04-28T12:15:01;16.10;79.90
12622;DHT22;6376;48.182;-1.644;2023-04-28T12:17:34;16.20;79.80
12622;DHT22;6376;48.182;-1.644;2023-04-28T12:20:02;16.20;79.70
12622;DHT22;6376;48.182;-1.644;2023-04-28T12:22:29;16.20;79.70
12622;DHT22;6376;48.182;-1.644;2023-04-28T12:25:09;16.20;79.60
12622;DHT22;6376;48.182;-1.644;2023-04-28T12:27:36;16.20;79.40
12622;DHT22;6376;48.182;-1.644;2023-04-28T12:30:25;16.20;79.40
12622;DHT22;6376;48.182;-1.644;2023-04-28T12:32:50;16.30;79.40
12622;DHT22;6376;48.182;-1.644;2023-04-28T12:35:16;16.30;79.40
12622;DHT22;6376;48.182;-1.644;2023-04-28T12:37:42;16.30;79.30
12622;DHT22;6376;48.182;-1.644;2023-04-28T12:40:09;16.20;79.40
12622;DHT22;6376;48.182;-1.644;2023-04-28T12:42:35;16.30;79.30
12622;DHT22;6376;48.182;-1.644;2023-04-28T12:45:01;16.30;79.10
12622;DHT22;6376;48.182;-1.644;2023-04-28T12:47:27;16.30;79.10
12622;DHT22;6376;48.182;-1.644;2023-04-28T12:49:52;16.30;79.00
12622;DHT22;6376;48.182;-1.644;2023-04-28T12:52:19;16.30;79.00
12622;DHT22;6376;48.182;-1.644;2023-04-28T12:54:45;16.30;79.10
12622;DHT22;6376;48.182;-1.644;2023-04-28T12:57:15;16.30;79.10
12622;DHT22;6376;48.182;-1.644;2023-04-28T12:59:42;16.30;79.10
12622;DHT22;6376;48.182;-1.644;2023-04-28T13:02:07;16.30;79.30
12622;DHT22;6376;48.182;-1.644;2023-04-28T13:04:33;16.30;79.30
12622;DHT22;6376;48.182;-1.644;2023-04-28T13:06:59;16.30;79.30
12622;DHT22;6376;48.182;-1.644;2023-04-28T13:09:25;16.30;79.30
12622;DHT22;6376;48.182;-1.644;2023-04-28T13:11:51;16.30;79.30
12622;DHT22;6376;48.182;-1.644;2023-04-28T13:14:20;16.30;79.40
12622;DHT22;6376;48.182;-1.644;2023-04-28T13:16:46;16.30;79.40
12622;DHT22;6376;48.182;-1.644;2023-04-28T13:19:12;16.30;79.40
12622;DHT22;6376;48.182;-1.644;2023-04-28T13:21:41;16.30;79.30
12622;DHT22;6376;48.182;-1.644;2023-04-28T13:24:07;16.30;79.30
12622;DHT22;6376;48.182;-1.644;2023-04-28T13:26:33;16.30;79.20
12622;DHT22;6376;48.182;-1.644;2023-04-28T13:28:59;16.30;79.20
12622;DHT22;6376;48.182;-1.644;2023-04-28T13:31:27;16.30;79.30
12622;DHT22;6376;48.182;-1.644;2023-04-28T13:33:54;16.30;79.40
12622;DHT22;6376;48.182;-1.644;2023-04-28T13:36:20;16.30;79.60
12622;DHT22;6376;48.182;-1.644;2023-04-28T13:38:45;16.30;79.30
12622;DHT22;6376;48.182;-1.644;2023-04-28T13:41:16;16.30;79.50
12622;DHT22;6376;48.182;-1.644;2023-04-28T13:43:42;16.40;79.40
12622;DHT22;6376;48.182;-1.644;2023-04-28T13:46:08;16.40;79.30
12622;DHT22;6376;48.182;-1.644;2023-04-28T13:48:35;16.40;79.30
12622;DHT22;6376;48.182;-1.644;2023-04-28T13:51:01;16.40;79.30
12622;DHT22;6376;48.182;-1.644;2023-04-28T13:53:28;16.40;79.30
12622;DHT22;6376;48.182;-1.644;2023-04-28T13:55:54;16.30;79.50
12622;DHT22;6376;48.182;-1.644;2023-04-28T13:58:25;16.30;79.50
12622;DHT22;6376;48.182;-1.644;2023-04-28T14:00:52;16.30;79.70
12622;DHT22;6376;48.182;-1.644;2023-04-28T14:03:19;16.30;79.60
12622;DHT22;6376;48.182;-1.644;2023-04-28T14:05:47;16.30;79.60
12622;DHT22;6376;48.182;-1.644;2023-04-28T14:08:14;16.30;79.60
12622;DHT22;6376;48.182;-1.644;2023-04-28T14:10:40;16.30;79.70
12622;DHT22;6376;48.182;-1.644;2023-04-28T14:13:05;16.30;79.90
12622;DHT22;6376;48.182;-1.644;2023-04-28T14:15:31;16.30;79.90
12622;DHT22;6376;48.182;-1.644;2023-04-28T14:17:57;16.30;79.80
12622;DHT22;6376;48.182;-1.644;2023-04-28T14:20:23;16.40;79.70
12622;DHT22;6376;48.182;-1.644;2023-04-28T14:22:48;16.40;79.70
12622;DHT22;6376;48.182;-1.644;2023-04-28T14:25:16;16.40;79.90
12622;DHT22;6376;48.182;-1.644;2023-04-28T14:27:41;16.40;79.70
12622;DHT22;6376;48.182;-1.644;2023-04-28T14:30:07;16.40;79.60
12622;DHT22;6376;48.182;-1.644;2023-04-28T14:32:34;16.40;79.70
12622;DHT22;6376;48.182;-1.644;2023-04-28T14:35:00;16.40;79.70
12622;DHT22;6376;48.182;-1.644;2023-04-28T14:37:27;16.40;79.60
12622;DHT22;6376;48.182;-1.644;2023-04-28T14:39:53;16.40;79.60
12622;DHT22;6376;48.182;-1.644;2023-04-28T14:42:18;16.40;79.90
12622;DHT22;6376;48.182;-1.644;2023-04-28T14:44:44;16.40;79.70
12622;DHT22;6376;48.182;-1.644;2023-04-28T14:47:10;16.40;79.60
12622;DHT22;6376;48.182;-1.644;2023-04-28T14:49:37;16.40;79.70
12622;DHT22;6376;48.182;-1.644;2023-04-28T14:52:03;16.40;79.70
12622;DHT22;6376;48.182;-1.644;2023-04-28T14:54:28;16.40;79.70
12622;DHT22;6376;48.182;-1.644;2023-04-28T14:56:54;16.40;79.70
12622;DHT22;6376;48.182;-1.644;2023-04-28T14:59:20;16.40;79.70
12622;DHT22;6376;48.182;-1.644;2023-04-28T15:01:45;16.40;79.70
12622;DHT22;6376;48.182;-1.644;2023-04-28T15:04:11;16.40;79.90
12622;DHT22;6376;48.182;-1.644;2023-04-28T15:06:37;16.40;80.00
12622;DHT22;6376;48.182;-1.644;2023-04-28T15:09:02;16.40;80.20
12622;DHT22;6376;48.182;-1.644;2023-04-28T15:11:28;16.40;80.50
12622;DHT22;6376;48.182;-1.644;2023-04-28T15:13:53;16.40;80.20
12622;DHT22;6376;48.182;-1.644;2023-04-28T15:16:19;16.40;80.30
12622;DHT22;6376;48.182;-1.644;2023-04-28T15:18:45;16.40;80.20
12622;DHT22;6376;48.182;-1.644;2023-04-28T15:21:11;16.40;80.30
12622;DHT22;6376;48.182;-1.644;2023-04-28T15:23:36;16.40;80.60
12622;DHT22;6376;48.182;-1.644;2023-04-28T15:26:02;16.40;80.40
12622;DHT22;6376;48.182;-1.644;2023-04-28T15:28:29;16.40;80.20
12622;DHT22;6376;48.182;-1.644;2023-04-28T15:30:54;16.50;80.20
12622;DHT22;6376;48.182;-1.644;2023-04-28T15:33:20;16.40;80.20
12622;DHT22;6376;48.182;-1.644;2023-04-28T15:35:46;16.40;80.30
12622;DHT22;6376;48.182;-1.644;2023-04-28T15:38:12;16.40;80.30
12622;DHT22;6376;48.182;-1.644;2023-04-28T15:40:39;16.40;80.30
12622;DHT22;6376;48.182;-1.644;2023-04-28T15:43:05;16.40;80.30
12622;DHT22;6376;48.182;-1.644;2023-04-28T15:45:32;16.40;80.50
12622;DHT22;6376;48.182;-1.644;2023-04-28T15:47:59;16.40;80.40
12622;DHT22;6376;48.182;-1.644;2023-04-28T15:50:25;16.40;80.50
12622;DHT22;6376;48.182;-1.644;2023-04-28T15:52:51;16.40;80.50